• Join FlightAware (Why Join?)
  • Login
  • US Flag 
04:16AM EDT


 

Airport Tracker/Info


-or-


 

Live Flight TrackerFlight Track Log ✈ AAL1459 ✈ 04-Sep-2013 ✈ KORD - KRNO

Flight Track Log - Related Links

Times and Time Zones

All times are in EDT time to prevent confusion due to time zone crossing. See the AAL1459 flight status page for this flight to view local times or setup timezone preferences in your user account.

Time Position Orientation Groundspeed Altitude Reporting Facility
EDT Latitude Longitude Course Direction KTS MPH feet Rate Location/Type
07:00PM 42.0167 -87.9833 270° West 177 204 2,500  Level Chicago TRACON
07:01PM 41.9667 -88.1957 270° West  Level FlightAware Approximate
07:01PM 42.0333 -88.0667 285° West 250 288 4,400  Level Chicago TRACON
07:02PM 41.9667 -88.3436 270° West  Level FlightAware Approximate
07:02PM 42.0378 -88.1619 274° West 235 270 6,800  Level Chicago Center
07:03PM 41.9667 -88.4914 270° West  Level FlightAware Approximate
07:03PM 42.0453 -88.2611 276° West 263 303 9,700  Level Chicago Center
07:04PM 41.9668 -88.6392 270° West  Level FlightAware Approximate
07:04PM 42.0531 -88.3781 275° West 312 359 11,500  Level Chicago Center
07:05PM 41.9667 -88.7916 270° West  Level FlightAware Approximate
07:05PM 42.0606 -88.5061 275° West 343 395 14,500  Level Chicago Center
07:06PM 42.0689 -88.6664 274° West 360 414 17,800 2,520 Climbing Chicago Center
07:07PM 42.0803 -88.8006 277° West 364 419 19,800 2,100 Climbing Chicago Center
07:08PM 42.0881 -88.9467 274° West 389 448 22,200 2,100 Climbing Chicago Center
07:09PM 42.0997 -89.0906 276° West 389 448 24,200 1,800 Climbing Chicago Center
07:10PM 42.1083 -89.2397 274° West 402 463 26,000 1,740 Climbing Chicago Center
07:11PM 42.1208 -89.4233 275° West 413 475 27,800 1,500 Climbing Chicago Center
07:12PM 42.1275 -89.5600 274° West 422 486 29,100 1,680 Climbing Chicago Center
07:13PM 42.1375 -89.7500 274° West 428 493 31,300 1,860 Climbing Chicago Center
07:14PM 42.1444 -89.9022 274° West 416 479 33,000 1,500 Climbing Chicago Center
07:15PM 42.1522 -90.0536 274° West 409 471 34,500 1,260 Climbing Chicago Center
07:16PM 42.1592 -90.2047 274° West 409 471 35,700 1,140 Climbing Chicago Center
07:17PM 42.1678 -90.3517 275° West 399 459 36,900 1,080 Climbing Chicago Center
07:18PM 42.1775 -90.5269 274° West 395 455 38,000 480 Climbing Chicago Center
07:19PM 42.1839 -90.6739 273° West 396 456 38,000 120 Level Chicago Center
07:20PM 42.1903 -90.8200 273° West 393 452 38,300 480 Climbing Chicago Center
07:21PM 42.1981 -90.9644 274° West 391 450 39,000 300 Climbing Chicago Center
07:22PM 42.2031 -91.1144 273° West 402 463 39,000  Level Chicago Center
07:23PM 42.2111 -91.2900 274° West 394 453 39,000  Level Chicago Center
07:24PM 42.2175 -91.4361 273° West 391 450 39,000  Level Chicago Center
07:25PM 42.2231 -91.5836 273° West 394 453 39,000  Level Chicago Center
07:26PM 42.2283 -91.7297 273° West 393 452 39,000  Level Chicago Center
07:28PM 42.2358 -91.8794 274° West 398 458 39,000  Level Chicago Center
07:29PM 42.2403 -92.0272 272° West 398 458 39,000  Level Chicago Center
07:30PM 42.2475 -92.2047 273° West 397 457 39,000  Level Chicago Center
07:31PM 42.2522 -92.3528 273° West 398 458 39,000  Level Chicago Center
07:32PM 42.2581 -92.5008 273° West 397 457 39,000  Level Chicago Center
07:33PM 42.2628 -92.6483 273° West 397 457 39,000  Level Chicago Center
07:34PM 42.2672 -92.7961 272° West 398 458 39,000  Level Chicago Center
07:35PM 42.2725 -92.9756 272° West 401 461 39,000  Level Chicago Center
07:36PM 42.2767 -93.1261 272° West 406 467 39,000  Level Chicago Center
07:36PM 42.2803 -93.2172 273° West 405 466 39,000  Level Minneapolis Center
07:37PM 42.2836 -93.3683 272° West 407 468 39,000  Level Minneapolis Center
07:38PM 42.2881 -93.5186 272° West 405 466 39,000  Level Minneapolis Center
07:39PM 42.2914 -93.6711 272° West 411 473 39,000  Level Minneapolis Center
07:41PM 42.2964 -93.8506 272° West 405 466 39,000  Level Minneapolis Center
07:42PM 42.2978 -94.0011 271° West 405 466 39,000  Level Minneapolis Center
07:43PM 42.3011 -94.1822 271° West 406 467 39,000  Level Minneapolis Center
07:44PM 42.3075 -94.3414 273° West 406 467 39,000  Level Minneapolis Center
07:45PM 42.3086 -94.4922 271° West 405 466 39,000  Level Minneapolis Center
07:46PM 42.3103 -94.6456 271° West 409 471 39,000  Level Minneapolis Center
07:47PM 42.3119 -94.7964 271° West 405 466 39,000  Level Minneapolis Center
07:48PM 42.3150 -94.9806 271° West 411 473 39,000  Level Minneapolis Center
07:49PM 42.3169 -95.1331 271° West 408 470 39,000  Level Minneapolis Center
07:50PM 42.3175 -95.2864 270° West 410 472 39,000  Level Minneapolis Center
07:51PM 42.3189 -95.4406 271° West 411 473 39,000  Level Minneapolis Center
07:52PM 42.3194 -95.5936 270° West 409 471 39,000  Level Minneapolis Center
07:53PM 42.3203 -95.7172 271° West 411 473 39,000  Level Minneapolis Center
07:54PM 42.3214 -95.9017 271° West 413 475 39,000  Level Minneapolis Center
07:55PM 42.3225 -96.0858 271° West 412 474 39,000  Level Minneapolis Center
07:56PM 42.3228 -96.2425 270° West 415 478 39,000  Level Minneapolis Center
07:57PM 42.3225 -96.3978 270° West 416 479 39,000  Level Minneapolis Center
07:58PM 42.3225 -96.5528 270° West 415 478 39,000  Level Minneapolis Center
07:59PM 42.3228 -96.7097 270° West 418 481 39,000  Level Minneapolis Center
08:00PM 42.3208 -96.8981 269° West 419 482 39,000  Level Minneapolis Center
08:01PM 42.3200 -97.0536 270° West 418 481 39,000  Level Minneapolis Center
08:02PM 42.3183 -97.2100 269° West 417 480 39,000  Level Minneapolis Center
08:03PM 42.3161 -97.3353 269° West 418 481 39,000  Level Minneapolis Center
08:04PM 42.3156 -97.5206 270° West 416 479 39,000  Level Minneapolis Center
08:05PM 42.3158 -97.6739 270° West 413 475 39,000  Level Minneapolis Center
08:06PM 42.3122 -97.8597 269° West 413 475 39,000  Level Minneapolis Center
08:08PM 42.3092 -98.0117 268° West 410 472 39,000  Level Minneapolis Center
08:09PM 42.3069 -98.1664 269° West 410 472 39,000  Level Minneapolis Center
08:10PM 42.3044 -98.3214 269° West 413 475 39,000 60 Level Minneapolis Center
08:11PM 42.3033 -98.4467 269° West 415 478 39,200 480 Climbing Minneapolis Center
08:12PM 42.3000 -98.6314 269° West 414 476 40,000 360 Climbing Minneapolis Center
08:13PM 42.2961 -98.7844 268° West 411 473 40,000  Level Minneapolis Center
08:14PM 42.2917 -98.9664 268° West 406 467 40,000  Level Minneapolis Center
08:15PM 42.2889 -99.1183 269° West 406 467 40,000  Level Minneapolis Center
08:16PM 42.2842 -99.2703 268° West 406 467 40,000  Level Minneapolis Center
08:17PM 42.2806 -99.4219 268° West 405 466 40,000  Level Minneapolis Center
08:18PM 42.2761 -99.5756 268° West 408 470 40,000  Level Minneapolis Center
08:19PM 42.2922 -99.7239 278° West 407 468 40,000  Level Minneapolis Center
08:20PM 42.3344 -99.8631 292° West 404 465 40,000  Level Minneapolis Center
08:21PM 42.3881 -100.0292 294° West 403 464 40,000  Level Minneapolis Center
08:22PM 42.4331 -100.1667 294° West 402 463 40,000  Level Minneapolis Center
08:23PM 42.4781 -100.3031 294° West 400 460 40,000  Level Minneapolis Center
08:24PM 42.5361 -100.4711 295° West 399 459 40,000  Level Denver Center
08:25PM 42.5886 -100.6233 295° West 400 460 40,000  Level Denver Center
08:26PM 42.6358 -100.7494 297° West 396 456 40,000  Level Denver Center
08:27PM 42.6983 -100.8914 301° West 395 455 40,000  Level Denver Center
08:28PM 42.7497 -101.0167 299° West 396 456 40,000  Level Denver Center
08:29PM 42.7975 -101.1475 296° West 391 450 40,000  Level Denver Center
08:30PM 42.8222 -101.2928 283° West 403 464 40,000  Level Denver Center
08:31PM 42.8122 -101.4456 265° West 396 456 40,000  Level Denver Center
08:33PM 42.7989 -101.6150 264° West 404 465 40,000  Level Denver Center
08:34PM 42.7800 -101.7597 260° West 405 466 40,000  Level Denver Center
08:35PM 42.7597 -101.9247 261° West 405 466 40,000  Level Denver Center
08:36PM 42.7425 -102.0958 262° West 407 468 40,000  Level Denver Center
08:37PM 42.7306 -102.2422 264° West 407 468 40,000  Level Denver Center
08:38PM 42.7167 -102.3892 263° West 409 471 40,000  Level Denver Center
08:39PM 42.6967 -102.5622 261° West 415 478 40,000  Level Denver Center
08:40PM 42.6753 -102.7108 259° West 418 481 40,000  Level Denver Center
08:41PM 42.6564 -102.8856 262° West 419 482 40,000  Level Denver Center
08:42PM 42.6447 -103.0353 264° West 417 480 40,000  Level Denver Center
08:43PM 42.6317 -103.2097 264° West 415 478 40,000  Level Denver Center
08:44PM 42.6156 -103.3631 262° West 426 490 40,000  Level Denver Center
08:45PM 42.5981 -103.5411 262° West 425 489 40,000  Level Denver Center
08:46PM 42.5831 -103.6942 262° West 427 491 40,000  Level Denver Center
08:47PM 42.5667 -103.8747 263° West 431 496 40,000  Level Denver Center
08:48PM 42.5508 -104.0264 262° West 427 491 40,000  Level Denver Center
08:49PM 42.5331 -104.2031 262° West 424 488 40,000  Level Denver Center
08:50PM 42.5172 -104.3539 262° West 421 484 40,000  Level Denver Center
08:51PM 42.4992 -104.5050 261° West 423 487 40,000  Level Denver Center
08:52PM 42.4833 -104.6922 264° West 441 507 40,000  Level Denver Center
08:53PM 42.4825 -104.8444 270° West 425 489 40,000  Level Denver Center
08:54PM 42.4769 -104.9958 267° West 420 483 40,000  Level Denver Center
08:55PM 42.4708 -105.1436 267° West 413 475 40,000  Level Denver Center
08:56PM 42.4525 -105.3192 262° West 422 486 40,000  Level Denver Center
08:57PM 42.4331 -105.4900 261° West 415 478 40,000  Level Denver Center
08:58PM 42.4156 -105.6369 261° West 415 478 40,000  Level Denver Center
08:59PM 42.3961 -105.8117 261° West 421 484 40,000  Level Denver Center
09:00PM 42.3769 -105.9611 260° West 422 486 40,000  Level Denver Center
09:01PM 42.3564 -106.1414 261° West 424 488 40,000  Level Denver Center
09:02PM 42.3375 -106.2897 260° West 431 496 40,000  Level Denver Center
09:04PM 42.3164 -106.4661 261° West 428 493 40,000  Level Denver Center
09:05PM 42.2975 -106.6225 261° West 429 494 40,000  Level Denver Center
09:06PM 42.2794 -106.7753 261° West 430 495 40,000  Level Denver Center
09:07PM 42.2586 -106.9267 260° West 431 496 40,000  Level Denver Center
09:08PM 42.2381 -107.1039 261° West 431 496 40,000  Level Denver Center
09:09PM 42.2131 -107.2803 259° West 431 496 40,000  Level Denver Center
09:10PM 42.1939 -107.4306 260° West 430 495 40,000  Level Denver Center
09:11PM 42.1711 -107.6058 260° West 426 490 40,000  Level Denver Center
09:12PM 42.1500 -107.7553 259° West 427 491 40,000  Level Denver Center
09:13PM 42.1267 -107.9303 260° West 427 491 40,000  Level Denver Center
09:14PM 42.1056 -108.0786 259° West 423 487 40,000  Level Denver Center
09:15PM 42.0811 -108.2544 259° West 428 493 40,000  Level Denver Center
09:16PM 42.0589 -108.4356 261° West 433 498 40,000  Level Salt Lake Center
09:17PM 42.0331 -108.6097 259° West 429 494 40,000  Level Salt Lake Center
09:18PM 42.0119 -108.7581 259° West 426 490 40,000  Level Salt Lake Center
09:19PM 41.9869 -108.9300 259° West 423 487 40,000  Level Salt Lake Center
09:20PM 41.9531 -109.0717 252° West 421 484 40,000  Level Salt Lake Center
09:21PM 41.9142 -109.2336 252° West 414 476 40,000  Level Salt Lake Center
09:22PM 41.8828 -109.3747 253° West 414 476 40,000  Level Salt Lake Center
09:23PM 41.8522 -109.5414 256° West 415 478 40,000  Level Salt Lake Center
09:24PM 41.8317 -109.6861 259° West 415 478 40,000  Level Salt Lake Center
09:25PM 41.8058 -109.8558 259° West 417 480 40,000  Level Salt Lake Center
09:26PM 41.7839 -110.0025 259° West 420 483 40,000  Level Salt Lake Center
09:27PM 41.7608 -110.1481 258° West 420 483 40,000  Level Salt Lake Center
09:28PM 41.7350 -110.3181 259° West 419 482 40,000  Level Salt Lake Center
09:29PM 41.7128 -110.4656 259° West 423 487 40,000  Level Salt Lake Center
09:30PM 41.6861 -110.6367 258° West 421 484 40,000  Level Salt Lake Center
09:32PM 41.6622 -110.7825 258° West 420 483 40,000  Level Salt Lake Center
09:33PM 41.6350 -110.9508 258° West 417 480 40,000  Level Salt Lake Center
09:34PM 41.6117 -111.0919 258° West 414 476 40,000  Level Salt Lake Center
09:35PM 41.5875 -111.2403 258° West 412 474 40,000  Level Salt Lake Center
09:36PM 41.5639 -111.3889 258° West 411 473 40,000  Level Salt Lake Center
09:37PM 41.5389 -111.5381 257° West 414 476 40,000  Level Salt Lake Center
09:38PM 41.5097 -111.7153 258° West 412 474 40,000  Level Salt Lake Center
09:39PM 41.4844 -111.8628 257° West 412 474 40,000  Level Salt Lake Center
09:40PM 41.4597 -112.0108 257° West 413 475 40,000  Level Salt Lake Center
09:41PM 41.4339 -112.1575 257° West 412 474 40,000  Level Salt Lake Center
09:42PM 41.4086 -112.3058 257° West 413 475 40,000  Level Salt Lake Center
09:43PM 41.3825 -112.4525 257° West 411 473 40,000  Level Salt Lake Center
09:44PM 41.3561 -112.6003 257° West 413 475 40,000  Level Salt Lake Center
09:45PM 41.3253 -112.7789 257° West 415 478 40,000  Level Salt Lake Center
09:46PM 41.2983 -112.9269 256° West 413 475 40,000  Level Salt Lake Center
09:47PM 41.2719 -113.0753 257° West 414 476 40,000  Level Salt Lake Center
09:48PM 41.2447 -113.2203 256° West 408 470 40,000  Level Salt Lake Center
09:49PM 41.2175 -113.3681 256° West 411 473 40,000  Level Salt Lake Center
09:50PM 41.1903 -113.5169 256° West 415 478 40,000  Level Salt Lake Center
09:51PM 41.1644 -113.6636 257° West 411 473 40,000  Level Salt Lake Center
09:52PM 41.1311 -113.8053 253° West 406 467 40,000  Level Salt Lake Center
09:53PM 41.0797 -113.9697 248° West 403 464 40,000  Level Salt Lake Center
09:54PM 41.0378 -114.1047 248° West 400 460 40,000  Level Salt Lake Center
09:55PM 40.9939 -114.2383 247° West 397 457 40,000  Level Salt Lake Center
09:56PM 40.9536 -114.3742 249° West 398 458 40,000  Level Salt Lake Center
09:57PM 40.9114 -114.5153 248° West 397 457 40,000  Level Salt Lake Center
09:58PM 40.8736 -114.6456 249° West 397 457 40,000  Level Salt Lake Center
09:59PM 40.8242 -114.7961 247° West 398 458 40,000  Level Salt Lake Center
10:00PM 40.7828 -114.9256 247° West 399 459 40,000  Level Salt Lake Center
10:01PM 40.7367 -115.0778 248° West 400 460 40,000  Level Salt Lake Center
10:02PM 40.7003 -115.2097 250° West 399 459 40,000  Level Salt Lake Center
10:03PM 40.6792 -115.3503 259° West 406 467 40,000  Level Salt Lake Center
10:04PM 40.6539 -115.5153 259° West 411 473 40,000  Level Salt Lake Center
10:05PM 40.6314 -115.6572 258° West 413 475 40,000  Level Salt Lake Center
10:06PM 40.6047 -115.8239 258° West 416 479 40,000  Level Salt Lake Center
10:07PM 40.5817 -115.9658 258° West 415 478 40,000  Level Salt Lake Center
10:08PM 40.5597 -116.1075 259° West 413 475 40,000  Level Salt Lake Center
10:09PM 40.5319 -116.2733 258° West 416 479 40,000  Level Salt Lake Center
10:10PM 40.5089 -116.4147 258° West 415 478 40,000  Level Salt Lake Center
10:11PM 40.4811 -116.5789 258° West 413 475 40,000  Level Salt Lake Center
10:12PM 40.4694 -116.7225 264° West 417 480 40,000  Level Salt Lake Center
10:14PM 40.4628 -116.8636 266° West 420 483 40,000  Level Salt Lake Center
10:15PM 40.4564 -117.0317 267° West 417 480 40,000  Level Salt Lake Center
10:16PM 40.4500 -117.2014 267° West 420 483 40,000  Level Salt Lake Center
10:17PM 40.4439 -117.3472 267° West 419 482 40,000  Level Salt Lake Center
10:18PM 40.4197 -117.4875 257° West 416 479 40,000  Level Salt Lake Center
10:19PM 40.3778 -117.6411 250° West 404 465 40,000 -120 Level Salt Lake Center
10:20PM 40.3417 -117.7747 251° West 406 467 39,800 -1,320 Descending Salt Lake Center
10:21PM 40.3003 -117.9311 251° West 407 468 37,400 -2,220 Descending Salt Lake Center
10:22PM 40.2639 -118.0689 251° West 417 480 35,300 -2,220 Descending Salt Lake Center
10:23PM 40.2183 -118.2364 250° West 435 501 32,900 -2,280 Descending Salt Lake Center
10:24PM 40.1778 -118.3822 250° West 444 511 30,700 -1,440 Descending Salt Lake Center
10:25PM 40.1406 -118.5233 251° West 435 501 30,000 -1,140 Descending Salt Lake Center
10:26PM 40.1058 -118.6761 253° West 417 480 28,400 -1,860 Descending Salt Lake Center
10:27PM 40.0792 -118.8156 256° West 402 463 26,200 -2,340 Descending Salt Lake Center
10:28PM 40.0514 -118.9525 255° West 395 455 23,700 -2,160 Descending Salt Lake Center
10:29PM 40.0258 -119.0864 256° West 386 444 21,800 -2,040 Descending Salt Lake Center
10:30PM 39.9906 -119.2350 253° West 361 415 19,600 -2,040 Descending Salt Lake Center
10:31PM 39.9519 -119.3497 246° West 348 400 17,700 -1,980 Descending Salt Lake Center
10:32PM 39.9167 -119.4647 248° West 343 395 15,600 -2,520 Descending Salt Lake Center
10:33PM 39.8825 -119.5797 249° West 343 395 12,600 -2,340 Descending Salt Lake Center
10:34PM 39.8333 -119.7000 242° Southwest 340 391 11,000 -1,320 Descending Northern Cal TRACON
10:35PM 39.8000 -119.8000 247° West 296 341 10,100 -1,020 Descending Northern Cal TRACON
10:36PM 39.7500 -119.8667 226° Southwest 284 327 9,000 -900 Descending Northern Cal TRACON
10:37PM 39.7167 -119.7833 117° Southeast 289 333 8,400 -900 Descending Northern Cal TRACON
10:38PM 39.6667 -119.7667 166° South 227 261 7,300 -1,080 Descending Northern Cal TRACON
10:39PM 39.6167 -119.7667 180° South 170 196 6,300 -900 Descending Northern Cal TRACON
10:40PM 39.5667 -119.7667 180° South 150 173 5,600 -840 Descending Northern Cal TRACON
10:41PM 39.5333 -119.7667 180° South 158 182 4,700 -900 Descending Northern Cal TRACON